sensor_id;sensor_type;location;lat;lon;timestamp;temperature;humidity
41310;DHT22;27057;51.438;-0.010;2023-04-16T00:01:30;9.50;99.90
41310;DHT22;27057;51.438;-0.010;2023-04-16T00:03:57;9.60;99.90
41310;DHT22;27057;51.438;-0.010;2023-04-16T00:06:25;9.80;99.90
41310;DHT22;27057;51.438;-0.010;2023-04-16T00:08:53;9.50;99.90
41310;DHT22;27057;51.438;-0.010;2023-04-16T00:11:21;9.90;99.90
41310;DHT22;27057;51.438;-0.010;2023-04-16T00:13:48;9.50;99.90
41310;DHT22;27057;51.438;-0.010;2023-04-16T00:16:16;9.30;99.90
41310;DHT22;27057;51.438;-0.010;2023-04-16T00:18:43;9.50;99.90
41310;DHT22;27057;51.438;-0.010;2023-04-16T00:21:10;9.70;99.90
41310;DHT22;27057;51.438;-0.010;2023-04-16T00:23:38;8.80;99.90
41310;DHT22;27057;51.438;-0.010;2023-04-16T00:26:06;9.70;99.90
41310;DHT22;27057;51.438;-0.010;2023-04-16T00:28:34;8.90;99.90
41310;DHT22;27057;51.438;-0.010;2023-04-16T00:31:01;9.30;99.90
41310;DHT22;27057;51.438;-0.010;2023-04-16T00:33:29;9.30;99.90
41310;DHT22;27057;51.438;-0.010;2023-04-16T00:35:56;9.00;99.90
41310;DHT22;27057;51.438;-0.010;2023-04-16T00:38:23;9.10;99.90
41310;DHT22;27057;51.438;-0.010;2023-04-16T00:40:51;9.10;99.90
41310;DHT22;27057;51.438;-0.010;2023-04-16T00:43:22;9.30;99.90
41310;DHT22;27057;51.438;-0.010;2023-04-16T00:45:55;9.30;99.90
41310;DHT22;27057;51.438;-0.010;2023-04-16T00:48:23;9.30;99.90
41310;DHT22;27057;51.438;-0.010;2023-04-16T00:50:54;9.20;99.90
41310;DHT22;27057;51.438;-0.010;2023-04-16T00:53:22;9.30;99.90
41310;DHT22;27057;51.438;-0.010;2023-04-16T00:55:50;9.20;99.90
41310;DHT22;27057;51.438;-0.010;2023-04-16T00:58:18;9.10;99.90
41310;DHT22;27057;51.438;-0.010;2023-04-16T01:00:46;9.20;99.90
41310;DHT22;27057;51.438;-0.010;2023-04-16T01:03:15;9.50;99.90
41310;DHT22;27057;51.438;-0.010;2023-04-16T01:08:17;9.30;99.90
41310;DHT22;27057;51.438;-0.010;2023-04-16T01:10:44;9.20;99.90
41310;DHT22;27057;51.438;-0.010;2023-04-16T01:15:40;9.20;99.90
41310;DHT22;27057;51.438;-0.010;2023-04-16T01:18:18;9.20;99.90
41310;DHT22;27057;51.438;-0.010;2023-04-16T01:20:47;9.30;99.90
41310;DHT22;27057;51.438;-0.010;2023-04-16T01:23:15;9.20;99.90
41310;DHT22;27057;51.438;-0.010;2023-04-16T01:25:46;9.10;99.90
41310;DHT22;27057;51.438;-0.010;2023-04-16T01:28:14;8.90;99.90
41310;DHT22;27057;51.438;-0.010;2023-04-16T01:30:43;8.80;99.90
41310;DHT22;27057;51.438;-0.010;2023-04-16T01:33:33;8.80;99.90
41310;DHT22;27057;51.438;-0.010;2023-04-16T01:36:00;8.90;99.90
41310;DHT22;27057;51.438;-0.010;2023-04-16T01:38:28;9.70;99.90
41310;DHT22;27057;51.438;-0.010;2023-04-16T01:40:56;8.90;99.90
41310;DHT22;27057;51.438;-0.010;2023-04-16T01:43:26;8.90;99.90
41310;DHT22;27057;51.438;-0.010;2023-04-16T01:46:07;8.90;99.90
41310;DHT22;27057;51.438;-0.010;2023-04-16T01:48:37;8.60;99.90
41310;DHT22;27057;51.438;-0.010;2023-04-16T01:51:04;8.80;99.90
41310;DHT22;27057;51.438;-0.010;2023-04-16T01:53:32;8.90;99.90
41310;DHT22;27057;51.438;-0.010;2023-04-16T01:56:02;8.80;99.90
41310;DHT22;27057;51.438;-0.010;2023-04-16T01:58:31;9.00;99.90
41310;DHT22;27057;51.438;-0.010;2023-04-16T02:00:58;9.90;99.90
41310;DHT22;27057;51.438;-0.010;2023-04-16T02:08:23;8.90;99.90
41310;DHT22;27057;51.438;-0.010;2023-04-16T02:10:50;9.10;99.90
41310;DHT22;27057;51.438;-0.010;2023-04-16T02:13:18;9.00;99.90
41310;DHT22;27057;51.438;-0.010;2023-04-16T02:15:48;8.80;99.90
41310;DHT22;27057;51.438;-0.010;2023-04-16T02:18:22;8.90;99.90
41310;DHT22;27057;51.438;-0.010;2023-04-16T02:20:50;9.00;99.90
41310;DHT22;27057;51.438;-0.010;2023-04-16T02:23:17;8.90;99.90
41310;DHT22;27057;51.438;-0.010;2023-04-16T02:25:46;8.80;99.90
41310;DHT22;27057;51.438;-0.010;2023-04-16T02:28:16;9.00;99.90
41310;DHT22;27057;51.438;-0.010;2023-04-16T02:30:45;8.40;99.90
41310;DHT22;27057;51.438;-0.010;2023-04-16T02:33:15;9.00;99.90
41310;DHT22;27057;51.438;-0.010;2023-04-16T02:35:54;8.70;99.90
41310;DHT22;27057;51.438;-0.010;2023-04-16T02:38:21;9.00;99.90
41310;DHT22;27057;51.438;-0.010;2023-04-16T02:40:49;8.60;99.90
41310;DHT22;27057;51.438;-0.010;2023-04-16T02:43:17;8.90;99.90
41310;DHT22;27057;51.438;-0.010;2023-04-16T02:45:44;9.70;99.90
41310;DHT22;27057;51.438;-0.010;2023-04-16T02:48:12;9.10;99.90
41310;DHT22;27057;51.438;-0.010;2023-04-16T02:50:40;8.80;99.90
41310;DHT22;27057;51.438;-0.010;2023-04-16T02:55:38;8.70;99.90
41310;DHT22;27057;51.438;-0.010;2023-04-16T02:58:05;8.50;99.90
41310;DHT22;27057;51.438;-0.010;2023-04-16T03:00:33;8.70;99.90
41310;DHT22;27057;51.438;-0.010;2023-04-16T03:05:29;8.60;99.90
41310;DHT22;27057;51.438;-0.010;2023-04-16T03:07:56;8.60;99.90
41310;DHT22;27057;51.438;-0.010;2023-04-16T03:10:24;8.80;99.90
41310;DHT22;27057;51.438;-0.010;2023-04-16T03:15:19;8.60;99.90
41310;DHT22;27057;51.438;-0.010;2023-04-16T03:17:47;9.00;99.90
41310;DHT22;27057;51.438;-0.010;2023-04-16T03:20:14;8.60;99.90
41310;DHT22;27057;51.438;-0.010;2023-04-16T03:22:43;8.70;99.90
41310;DHT22;27057;51.438;-0.010;2023-04-16T03:25:12;8.60;99.90
41310;DHT22;27057;51.438;-0.010;2023-04-16T03:27:40;8.80;99.90
41310;DHT22;27057;51.438;-0.010;2023-04-16T03:30:10;8.60;99.90
41310;DHT22;27057;51.438;-0.010;2023-04-16T03:35:06;8.60;99.90
41310;DHT22;27057;51.438;-0.010;2023-04-16T03:40:02;8.50;99.90
41310;DHT22;27057;51.438;-0.010;2023-04-16T03:42:32;8.60;99.90
41310;DHT22;27057;51.438;-0.010;2023-04-16T03:44:59;8.60;99.90
41310;DHT22;27057;51.438;-0.010;2023-04-16T03:47:27;8.40;99.90
41310;DHT22;27057;51.438;-0.010;2023-04-16T03:49:58;8.70;99.90
41310;DHT22;27057;51.438;-0.010;2023-04-16T03:52:27;9.40;99.90
41310;DHT22;27057;51.438;-0.010;2023-04-16T03:54:55;8.50;99.90
41310;DHT22;27057;51.438;-0.010;2023-04-16T03:57:28;8.60;99.90
41310;DHT22;27057;51.438;-0.010;2023-04-16T04:00:01;8.60;99.90
41310;DHT22;27057;51.438;-0.010;2023-04-16T04:02:40;8.80;99.90
41310;DHT22;27057;51.438;-0.010;2023-04-16T04:05:15;8.50;99.90
41310;DHT22;27057;51.438;-0.010;2023-04-16T04:07:44;8.50;99.90
41310;DHT22;27057;51.438;-0.010;2023-04-16T04:10:13;9.80;99.90
41310;DHT22;27057;51.438;-0.010;2023-04-16T04:12:42;8.60;99.90
41310;DHT22;27057;51.438;-0.010;2023-04-16T04:15:09;8.60;99.90
41310;DHT22;27057;51.438;-0.010;2023-04-16T04:17:37;8.70;99.90
41310;DHT22;27057;51.438;-0.010;2023-04-16T04:20:06;8.70;99.90
41310;DHT22;27057;51.438;-0.010;2023-04-16T04:22:33;8.70;99.90
41310;DHT22;27057;51.438;-0.010;2023-04-16T04:25:01;8.70;99.90
41310;DHT22;27057;51.438;-0.010;2023-04-16T04:27:31;8.90;99.90
41310;DHT22;27057;51.438;-0.010;2023-04-16T04:29:58;8.80;99.90
41310;DHT22;27057;51.438;-0.010;2023-04-16T04:32:26;9.00;99.90
41310;DHT22;27057;51.438;-0.010;2023-04-16T04:34:54;8.90;99.90
41310;DHT22;27057;51.438;-0.010;2023-04-16T04:37:22;9.10;99.90
41310;DHT22;27057;51.438;-0.010;2023-04-16T04:39:49;8.70;99.90
41310;DHT22;27057;51.438;-0.010;2023-04-16T04:42:17;8.60;99.90
41310;DHT22;27057;51.438;-0.010;2023-04-16T04:44:45;8.90;99.90
41310;DHT22;27057;51.438;-0.010;2023-04-16T04:47:14;9.00;99.90
41310;DHT22;27057;51.438;-0.010;2023-04-16T04:49:41;8.80;99.90
41310;DHT22;27057;51.438;-0.010;2023-04-16T04:52:11;8.80;99.90
41310;DHT22;27057;51.438;-0.010;2023-04-16T04:54:39;8.70;99.90
41310;DHT22;27057;51.438;-0.010;2023-04-16T04:57:07;9.10;99.90
41310;DHT22;27057;51.438;-0.010;2023-04-16T04:59:35;8.80;99.90
41310;DHT22;27057;51.438;-0.010;2023-04-16T05:04:30;9.00;99.90
41310;DHT22;27057;51.438;-0.010;2023-04-16T05:11:53;9.10;99.90
41310;DHT22;27057;51.438;-0.010;2023-04-16T05:14:20;9.10;99.90
41310;DHT22;27057;51.438;-0.010;2023-04-16T05:19:16;9.10;99.90
41310;DHT22;27057;51.438;-0.010;2023-04-16T05:21:43;9.20;99.90
41310;DHT22;27057;51.438;-0.010;2023-04-16T05:26:41;9.10;99.90
41310;DHT22;27057;51.438;-0.010;2023-04-16T05:29:08;9.20;99.90
41310;DHT22;27057;51.438;-0.010;2023-04-16T05:31:36;9.10;99.90
41310;DHT22;27057;51.438;-0.010;2023-04-16T05:36:31;9.10;99.90
41310;DHT22;27057;51.438;-0.010;2023-04-16T05:38:58;9.10;99.90
41310;DHT22;27057;51.438;-0.010;2023-04-16T05:43:53;9.20;99.90
41310;DHT22;27057;51.438;-0.010;2023-04-16T05:46:21;9.70;99.90
41310;DHT22;27057;51.438;-0.010;2023-04-16T05:48:48;9.10;99.90
41310;DHT22;27057;51.438;-0.010;2023-04-16T05:51:15;9.30;99.90
41310;DHT22;27057;51.438;-0.010;2023-04-16T05:53:43;9.30;99.90
41310;DHT22;27057;51.438;-0.010;2023-04-16T05:56:10;9.30;99.90
41310;DHT22;27057;51.438;-0.010;2023-04-16T05:58:38;9.30;99.90
41310;DHT22;27057;51.438;-0.010;2023-04-16T06:01:05;9.50;99.90
41310;DHT22;27057;51.438;-0.010;2023-04-16T06:03:33;9.90;99.90
41310;DHT22;27057;51.438;-0.010;2023-04-16T06:06:02;9.40;99.90
41310;DHT22;27057;51.438;-0.010;2023-04-16T06:08:29;9.60;99.90
41310;DHT22;27057;51.438;-0.010;2023-04-16T06:10:57;9.50;99.90
41310;DHT22;27057;51.438;-0.010;2023-04-16T06:13:24;9.60;99.90
41310;DHT22;27057;51.438;-0.010;2023-04-16T06:15:51;10.10;99.90
41310;DHT22;27057;51.438;-0.010;2023-04-16T06:18:19;10.00;99.90
41310;DHT22;27057;51.438;-0.010;2023-04-16T06:20:46;9.70;99.90
41310;DHT22;27057;51.438;-0.010;2023-04-16T06:23:14;10.00;99.90
41310;DHT22;27057;51.438;-0.010;2023-04-16T06:25:42;9.70;99.90
41310;DHT22;27057;51.438;-0.010;2023-04-16T06:30:38;9.80;99.90
41310;DHT22;27057;51.438;-0.010;2023-04-16T06:33:05;9.80;99.90
41310;DHT22;27057;51.438;-0.010;2023-04-16T06:35:32;9.90;99.90
41310;DHT22;27057;51.438;-0.010;2023-04-16T06:38:00;10.20;99.90
41310;DHT22;27057;51.438;-0.010;2023-04-16T06:40:27;10.10;99.90
41310;DHT22;27057;51.438;-0.010;2023-04-16T06:42:55;10.30;99.90
41310;DHT22;27057;51.438;-0.010;2023-04-16T06:45:22;10.40;99.90
41310;DHT22;27057;51.438;-0.010;2023-04-16T06:47:50;10.30;99.90
41310;DHT22;27057;51.438;-0.010;2023-04-16T06:50:18;11.40;99.90
41310;DHT22;27057;51.438;-0.010;2023-04-16T06:52:46;10.70;99.90
41310;DHT22;27057;51.438;-0.010;2023-04-16T06:55:16;11.50;99.90
41310;DHT22;27057;51.438;-0.010;2023-04-16T06:57:47;10.60;99.90
41310;DHT22;27057;51.438;-0.010;2023-04-16T07:00:14;10.60;99.90
41310;DHT22;27057;51.438;-0.010;2023-04-16T07:02:42;10.60;99.90
41310;DHT22;27057;51.438;-0.010;2023-04-16T07:05:10;8.90;99.90
41310;DHT22;27057;51.438;-0.010;2023-04-16T07:07:37;10.70;99.90
41310;DHT22;27057;51.438;-0.010;2023-04-16T07:10:08;10.70;99.90
41310;DHT22;27057;51.438;-0.010;2023-04-16T07:12:41;10.80;99.90
41310;DHT22;27057;51.438;-0.010;2023-04-16T07:15:09;10.90;99.90
41310;DHT22;27057;51.438;-0.010;2023-04-16T07:17:37;11.20;99.90
41310;DHT22;27057;51.438;-0.010;2023-04-16T07:20:05;11.10;99.90
41310;DHT22;27057;51.438;-0.010;2023-04-16T07:22:33;11.10;99.90
41310;DHT22;27057;51.438;-0.010;2023-04-16T07:25:01;11.70;99.90
41310;DHT22;27057;51.438;-0.010;2023-04-16T07:27:30;11.20;99.90
41310;DHT22;27057;51.438;-0.010;2023-04-16T07:29:57;11.40;99.90
41310;DHT22;27057;51.438;-0.010;2023-04-16T07:32:25;11.50;99.90
41310;DHT22;27057;51.438;-0.010;2023-04-16T07:34:52;11.60;99.90
41310;DHT22;27057;51.438;-0.010;2023-04-16T07:37:20;11.70;99.90
41310;DHT22;27057;51.438;-0.010;2023-04-16T07:39:51;12.10;99.90
41310;DHT22;27057;51.438;-0.010;2023-04-16T07:42:56;11.80;99.90
41310;DHT22;27057;51.438;-0.010;2023-04-16T07:45:24;11.90;99.90
41310;DHT22;27057;51.438;-0.010;2023-04-16T07:48:41;12.00;99.90
41310;DHT22;27057;51.438;-0.010;2023-04-16T07:51:10;12.20;99.90
41310;DHT22;27057;51.438;-0.010;2023-04-16T07:53:58;12.20;99.90
41310;DHT22;27057;51.438;-0.010;2023-04-16T07:56:52;12.30;99.90
41310;DHT22;27057;51.438;-0.010;2023-04-16T07:59:58;12.40;99.90
41310;DHT22;27057;51.438;-0.010;2023-04-16T08:02:45;12.50;99.90
41310;DHT22;27057;51.438;-0.010;2023-04-16T08:08:54;12.60;99.90
41310;DHT22;27057;51.438;-0.010;2023-04-16T08:16:38;12.80;99.90
41310;DHT22;27057;51.438;-0.010;2023-04-16T08:20:11;13.00;99.90
41310;DHT22;27057;51.438;-0.010;2023-04-16T08:23:13;13.10;99.90
41310;DHT22;27057;51.438;-0.010;2023-04-16T08:25:47;13.20;99.90
41310;DHT22;27057;51.438;-0.010;2023-04-16T08:28:45;13.50;99.90
41310;DHT22;27057;51.438;-0.010;2023-04-16T08:31:21;13.50;99.90
41310;DHT22;27057;51.438;-0.010;2023-04-16T08:33:51;13.50;99.90
41310;DHT22;27057;51.438;-0.010;2023-04-16T08:36:22;13.60;99.90
41310;DHT22;27057;51.438;-0.010;2023-04-16T08:41:51;13.80;99.90
41310;DHT22;27057;51.438;-0.010;2023-04-16T08:48:12;13.90;99.90
41310;DHT22;27057;51.438;-0.010;2023-04-16T08:50:40;14.00;99.90
41310;DHT22;27057;51.438;-0.010;2023-04-16T08:53:10;14.10;99.90
41310;DHT22;27057;51.438;-0.010;2023-04-16T08:55:49;14.20;99.90
41310;DHT22;27057;51.438;-0.010;2023-04-16T08:58:33;14.30;99.90
41310;DHT22;27057;51.438;-0.010;2023-04-16T09:01:09;14.50;99.90
41310;DHT22;27057;51.438;-0.010;2023-04-16T09:03:47;14.60;99.90
41310;DHT22;27057;51.438;-0.010;2023-04-16T09:06:16;14.70;99.90
41310;DHT22;27057;51.438;-0.010;2023-04-16T09:08:47;14.80;99.90
41310;DHT22;27057;51.438;-0.010;2023-04-16T09:11:19;15.00;99.90
41310;DHT22;27057;51.438;-0.010;2023-04-16T09:13:47;14.90;99.90
41310;DHT22;27057;51.438;-0.010;2023-04-16T09:16:16;14.90;99.90
41310;DHT22;27057;51.438;-0.010;2023-04-16T09:18:47;15.00;99.90
41310;DHT22;27057;51.438;-0.010;2023-04-16T09:21:15;15.00;99.90
41310;DHT22;27057;51.438;-0.010;2023-04-16T09:23:43;15.10;99.90
41310;DHT22;27057;51.438;-0.010;2023-04-16T09:26:11;15.10;99.90
41310;DHT22;27057;51.438;-0.010;2023-04-16T09:28:40;15.20;99.90
41310;DHT22;27057;51.438;-0.010;2023-04-16T09:31:10;15.30;99.90
41310;DHT22;27057;51.438;-0.010;2023-04-16T09:33:43;15.30;99.90
41310;DHT22;27057;51.438;-0.010;2023-04-16T09:36:27;15.40;99.90
41310;DHT22;27057;51.438;-0.010;2023-04-16T09:38:55;15.40;99.90
41310;DHT22;27057;51.438;-0.010;2023-04-16T09:41:31;15.50;99.90
41310;DHT22;27057;51.438;-0.010;2023-04-16T09:44:29;15.40;99.90
41310;DHT22;27057;51.438;-0.010;2023-04-16T09:47:07;15.70;99.90
41310;DHT22;27057;51.438;-0.010;2023-04-16T09:49:40;15.80;99.90
41310;DHT22;27057;51.438;-0.010;2023-04-16T09:52:16;15.80;99.90
41310;DHT22;27057;51.438;-0.010;2023-04-16T09:54:48;15.70;99.90
41310;DHT22;27057;51.438;-0.010;2023-04-16T09:57:21;15.80;99.90
41310;DHT22;27057;51.438;-0.010;2023-04-16T09:59:54;15.70;99.90
41310;DHT22;27057;51.438;-0.010;2023-04-16T10:02:27;15.90;99.90
41310;DHT22;27057;51.438;-0.010;2023-04-16T10:04:55;15.80;99.90
41310;DHT22;27057;51.438;-0.010;2023-04-16T10:07:30;16.10;99.90
41310;DHT22;27057;51.438;-0.010;2023-04-16T10:09:59;15.90;99.90
41310;DHT22;27057;51.438;-0.010;2023-04-16T10:12:28;16.00;99.90
41310;DHT22;27057;51.438;-0.010;2023-04-16T10:14:56;16.10;99.90
41310;DHT22;27057;51.438;-0.010;2023-04-16T10:17:24;16.20;99.90
41310;DHT22;27057;51.438;-0.010;2023-04-16T10:19:59;16.20;99.90
41310;DHT22;27057;51.438;-0.010;2023-04-16T10:22:27;16.30;99.90
41310;DHT22;27057;51.438;-0.010;2023-04-16T10:24:55;16.20;99.90
41310;DHT22;27057;51.438;-0.010;2023-04-16T10:27:23;16.20;99.90
41310;DHT22;27057;51.438;-0.010;2023-04-16T10:29:52;16.40;99.90
41310;DHT22;27057;51.438;-0.010;2023-04-16T10:32:21;16.40;99.90
41310;DHT22;27057;51.438;-0.010;2023-04-16T10:34:49;16.50;99.90
41310;DHT22;27057;51.438;-0.010;2023-04-16T10:37:16;16.60;99.90
41310;DHT22;27057;51.438;-0.010;2023-04-16T10:39:44;16.60;99.90
41310;DHT22;27057;51.438;-0.010;2023-04-16T10:42:12;16.60;99.90
41310;DHT22;27057;51.438;-0.010;2023-04-16T10:44:40;16.70;99.90
41310;DHT22;27057;51.438;-0.010;2023-04-16T10:47:12;16.80;99.90
41310;DHT22;27057;51.438;-0.010;2023-04-16T10:49:40;16.70;99.90
41310;DHT22;27057;51.438;-0.010;2023-04-16T10:52:09;16.80;99.90
41310;DHT22;27057;51.438;-0.010;2023-04-16T10:54:38;16.90;99.90
41310;DHT22;27057;51.438;-0.010;2023-04-16T10:57:15;17.00;99.90
41310;DHT22;27057;51.438;-0.010;2023-04-16T10:59:44;17.00;99.90
41310;DHT22;27057;51.438;-0.010;2023-04-16T11:02:17;17.10;99.90
41310;DHT22;27057;51.438;-0.010;2023-04-16T11:04:47;17.30;99.90
41310;DHT22;27057;51.438;-0.010;2023-04-16T11:07:20;17.40;99.90
41310;DHT22;27057;51.438;-0.010;2023-04-16T11:12:37;17.60;99.90
41310;DHT22;27057;51.438;-0.010;2023-04-16T11:15:07;17.50;99.90
41310;DHT22;27057;51.438;-0.010;2023-04-16T11:20:07;17.20;99.90
41310;DHT22;27057;51.438;-0.010;2023-04-16T11:22:50;17.20;99.90
41310;DHT22;27057;51.438;-0.010;2023-04-16T11:25:21;17.30;99.90
41310;DHT22;27057;51.438;-0.010;2023-04-16T11:27:50;17.00;99.90
41310;DHT22;27057;51.438;-0.010;2023-04-16T11:30:33;16.90;99.90
41310;DHT22;27057;51.438;-0.010;2023-04-16T11:33:06;17.10;99.90
41310;DHT22;27057;51.438;-0.010;2023-04-16T11:35:38;17.30;99.90
41310;DHT22;27057;51.438;-0.010;2023-04-16T11:38:06;17.40;99.90
41310;DHT22;27057;51.438;-0.010;2023-04-16T11:40:36;17.40;99.90
41310;DHT22;27057;51.438;-0.010;2023-04-16T11:43:12;17.60;99.90
41310;DHT22;27057;51.438;-0.010;2023-04-16T11:48:27;17.70;99.90
41310;DHT22;27057;51.438;-0.010;2023-04-16T11:51:12;17.60;99.90
41310;DHT22;27057;51.438;-0.010;2023-04-16T11:53:52;17.80;99.90
41310;DHT22;27057;51.438;-0.010;2023-04-16T11:56:28;17.60;99.90
41310;DHT22;27057;51.438;-0.010;2023-04-16T12:01:48;17.90;99.90
41310;DHT22;27057;51.438;-0.010;2023-04-16T12:04:19;18.10;99.90
41310;DHT22;27057;51.438;-0.010;2023-04-16T12:07:09;18.30;99.90
41310;DHT22;27057;51.438;-0.010;2023-04-16T12:09:41;18.50;99.90
41310;DHT22;27057;51.438;-0.010;2023-04-16T12:12:28;18.70;99.90
41310;DHT22;27057;51.438;-0.010;2023-04-16T12:15:03;19.10;99.90
41310;DHT22;27057;51.438;-0.010;2023-04-16T12:17:31;18.80;99.90
41310;DHT22;27057;51.438;-0.010;2023-04-16T12:20:01;18.70;99.90
41310;DHT22;27057;51.438;-0.010;2023-04-16T12:22:33;18.80;99.90
41310;DHT22;27057;51.438;-0.010;2023-04-16T12:25:05;19.00;99.90
41310;DHT22;27057;51.438;-0.010;2023-04-16T12:27:50;19.10;99.90
41310;DHT22;27057;51.438;-0.010;2023-04-16T12:30:22;19.30;99.90
41310;DHT22;27057;51.438;-0.010;2023-04-16T12:32:52;19.90;99.90
41310;DHT22;27057;51.438;-0.010;2023-04-16T12:35:31;19.40;99.90
41310;DHT22;27057;51.438;-0.010;2023-04-16T12:37:59;19.40;99.90
41310;DHT22;27057;51.438;-0.010;2023-04-16T12:40:27;19.60;99.90
41310;DHT22;27057;51.438;-0.010;2023-04-16T12:42:54;19.70;99.90
41310;DHT22;27057;51.438;-0.010;2023-04-16T12:45:23;19.80;99.90
41310;DHT22;27057;51.438;-0.010;2023-04-16T12:47:50;19.90;99.90
41310;DHT22;27057;51.438;-0.010;2023-04-16T12:50:18;20.10;99.90
41310;DHT22;27057;51.438;-0.010;2023-04-16T12:52:45;20.10;99.90
41310;DHT22;27057;51.438;-0.010;2023-04-16T12:55:13;20.20;99.90
41310;DHT22;27057;51.438;-0.010;2023-04-16T12:57:40;20.50;99.90
41310;DHT22;27057;51.438;-0.010;2023-04-16T13:00:09;20.80;99.90
41310;DHT22;27057;51.438;-0.010;2023-04-16T13:02:37;21.20;99.90
41310;DHT22;27057;51.438;-0.010;2023-04-16T13:05:05;21.20;99.90
41310;DHT22;27057;51.438;-0.010;2023-04-16T13:07:32;21.30;99.90
41310;DHT22;27057;51.438;-0.010;2023-04-16T13:10:00;21.30;98.60
41310;DHT22;27057;51.438;-0.010;2023-04-16T13:12:28;21.50;98.00
41310;DHT22;27057;51.438;-0.010;2023-04-16T13:14:55;22.00;99.90
41310;DHT22;27057;51.438;-0.010;2023-04-16T13:17:22;21.70;97.30
41310;DHT22;27057;51.438;-0.010;2023-04-16T13:19:50;22.00;95.50
41310;DHT22;27057;51.438;-0.010;2023-04-16T13:22:17;22.30;97.30
41310;DHT22;27057;51.438;-0.010;2023-04-16T13:24:45;22.70;97.70
41310;DHT22;27057;51.438;-0.010;2023-04-16T13:27:12;23.10;96.30
41310;DHT22;27057;51.438;-0.010;2023-04-16T13:29:42;23.30;97.30
41310;DHT22;27057;51.438;-0.010;2023-04-16T13:32:09;23.30;97.40
41310;DHT22;27057;51.438;-0.010;2023-04-16T13:34:39;22.90;94.90
41310;DHT22;27057;51.438;-0.010;2023-04-16T13:37:07;22.50;95.20
41310;DHT22;27057;51.438;-0.010;2023-04-16T13:39:34;22.10;97.00
41310;DHT22;27057;51.438;-0.010;2023-04-16T13:42:01;21.90;97.40
41310;DHT22;27057;51.438;-0.010;2023-04-16T13:44:29;21.60;97.30
41310;DHT22;27057;51.438;-0.010;2023-04-16T13:46:56;21.30;96.80
41310;DHT22;27057;51.438;-0.010;2023-04-16T13:49:24;20.90;96.10
41310;DHT22;27057;51.438;-0.010;2023-04-16T13:51:53;20.40;96.10
41310;DHT22;27057;51.438;-0.010;2023-04-16T13:54:21;19.90;99.90
41310;DHT22;27057;51.438;-0.010;2023-04-16T13:56:49;19.60;96.10
41310;DHT22;27057;51.438;-0.010;2023-04-16T13:59:17;19.30;96.10
41310;DHT22;27057;51.438;-0.010;2023-04-16T14:01:45;19.00;97.50
41310;DHT22;27057;51.438;-0.010;2023-04-16T14:04:12;19.10;97.90
41310;DHT22;27057;51.438;-0.010;2023-04-16T14:06:40;19.00;97.20
41310;DHT22;27057;51.438;-0.010;2023-04-16T14:09:07;19.00;97.20
41310;DHT22;27057;51.438;-0.010;2023-04-16T14:11:37;19.00;97.90
41310;DHT22;27057;51.438;-0.010;2023-04-16T14:14:04;19.10;97.60
41310;DHT22;27057;51.438;-0.010;2023-04-16T14:16:33;19.00;96.30
41310;DHT22;27057;51.438;-0.010;2023-04-16T14:19:00;18.60;97.70
41310;DHT22;27057;51.438;-0.010;2023-04-16T14:21:28;19.20;96.80
41310;DHT22;27057;51.438;-0.010;2023-04-16T14:23:57;19.40;97.80
41310;DHT22;27057;51.438;-0.010;2023-04-16T14:26:24;19.60;97.90
41310;DHT22;27057;51.438;-0.010;2023-04-16T14:28:52;19.80;98.20
41310;DHT22;27057;51.438;-0.010;2023-04-16T14:33:47;20.00;97.70
41310;DHT22;27057;51.438;-0.010;2023-04-16T14:36:14;20.00;97.60
41310;DHT22;27057;51.438;-0.010;2023-04-16T14:38:42;20.30;98.10
41310;DHT22;27057;51.438;-0.010;2023-04-16T14:41:09;20.10;97.20
41310;DHT22;27057;51.438;-0.010;2023-04-16T14:43:39;20.00;97.60
41310;DHT22;27057;51.438;-0.010;2023-04-16T14:46:07;20.00;97.10
41310;DHT22;27057;51.438;-0.010;2023-04-16T14:48:35;19.80;97.20
41310;DHT22;27057;51.438;-0.010;2023-04-16T14:51:02;19.80;97.40
41310;DHT22;27057;51.438;-0.010;2023-04-16T14:53:30;19.60;97.00
41310;DHT22;27057;51.438;-0.010;2023-04-16T14:55:57;19.50;97.20
41310;DHT22;27057;51.438;-0.010;2023-04-16T14:58:25;19.30;97.10
41310;DHT22;27057;51.438;-0.010;2023-04-16T15:00:52;19.30;97.60
41310;DHT22;27057;51.438;-0.010;2023-04-16T15:03:23;19.00;97.50
41310;DHT22;27057;51.438;-0.010;2023-04-16T15:05:53;18.80;99.90
41310;DHT22;27057;51.438;-0.010;2023-04-16T15:08:23;18.80;97.80
41310;DHT22;27057;51.438;-0.010;2023-04-16T15:10:57;18.80;98.40
41310;DHT22;27057;51.438;-0.010;2023-04-16T15:13:24;18.70;98.40
41310;DHT22;27057;51.438;-0.010;2023-04-16T15:16:00;18.60;98.10
41310;DHT22;27057;51.438;-0.010;2023-04-16T15:18:28;18.50;98.50
41310;DHT22;27057;51.438;-0.010;2023-04-16T15:20:59;18.40;98.80
41310;DHT22;27057;51.438;-0.010;2023-04-16T15:23:27;18.40;98.80
41310;DHT22;27057;51.438;-0.010;2023-04-16T15:25:54;18.40;99.00
41310;DHT22;27057;51.438;-0.010;2023-04-16T15:28:22;18.30;99.20
41310;DHT22;27057;51.438;-0.010;2023-04-16T15:30:50;18.30;99.40
41310;DHT22;27057;51.438;-0.010;2023-04-16T15:33:21;18.50;99.60
41310;DHT22;27057;51.438;-0.010;2023-04-16T15:35:50;18.20;99.50
41310;DHT22;27057;51.438;-0.010;2023-04-16T15:38:18;18.10;99.60
41310;DHT22;27057;51.438;-0.010;2023-04-16T15:40:47;18.20;99.80
41310;DHT22;27057;51.438;-0.010;2023-04-16T15:43:15;18.50;99.30
41310;DHT22;27057;51.438;-0.010;2023-04-16T15:45:43;18.90;98.70
41310;DHT22;27057;51.438;-0.010;2023-04-16T15:48:10;19.40;99.50
41310;DHT22;27057;51.438;-0.010;2023-04-16T15:50:38;19.90;98.20
41310;DHT22;27057;51.438;-0.010;2023-04-16T15:53:05;20.00;98.40
41310;DHT22;27057;51.438;-0.010;2023-04-16T15:55:33;20.20;98.10
41310;DHT22;27057;51.438;-0.010;2023-04-16T15:58:02;20.50;97.80
41310;DHT22;27057;51.438;-0.010;2023-04-16T16:00:30;20.80;97.70
41310;DHT22;27057;51.438;-0.010;2023-04-16T16:02:58;21.10;97.30
41310;DHT22;27057;51.438;-0.010;2023-04-16T16:05:25;21.60;95.70
41310;DHT22;27057;51.438;-0.010;2023-04-16T16:07:53;22.50;99.90
41310;DHT22;27057;51.438;-0.010;2023-04-16T16:10:20;22.40;96.30
41310;DHT22;27057;51.438;-0.010;2023-04-16T16:12:48;22.70;95.30
41310;DHT22;27057;51.438;-0.010;2023-04-16T16:15:15;22.90;93.90
41310;DHT22;27057;51.438;-0.010;2023-04-16T16:17:43;23.00;94.80
41310;DHT22;27057;51.438;-0.010;2023-04-16T16:20:10;23.10;94.30
41310;DHT22;27057;51.438;-0.010;2023-04-16T16:22:38;23.60;95.10
41310;DHT22;27057;51.438;-0.010;2023-04-16T16:25:07;23.40;95.20
41310;DHT22;27057;51.438;-0.010;2023-04-16T16:27:36;23.10;94.70
41310;DHT22;27057;51.438;-0.010;2023-04-16T16:30:04;23.20;94.20
41310;DHT22;27057;51.438;-0.010;2023-04-16T16:32:33;23.10;93.90
41310;DHT22;27057;51.438;-0.010;2023-04-16T16:35:01;22.80;93.40
41310;DHT22;27057;51.438;-0.010;2023-04-16T16:37:28;22.60;94.90
41310;DHT22;27057;51.438;-0.010;2023-04-16T16:39:55;22.40;94.60
41310;DHT22;27057;51.438;-0.010;2023-04-16T16:42:23;22.10;94.30
41310;DHT22;27057;51.438;-0.010;2023-04-16T16:44:50;21.90;95.10
41310;DHT22;27057;51.438;-0.010;2023-04-16T16:47:19;21.80;94.90
41310;DHT22;27057;51.438;-0.010;2023-04-16T16:49:47;21.40;95.60
41310;DHT22;27057;51.438;-0.010;2023-04-16T16:52:14;20.20;99.90